Beardsley, South Dakota
Current Conditions -  °F | °C
As of 7:53 PM on Sunday 21 Dec 2014 (Local Time) from KMHE Reporting Station
Overcast Overcast  
Wind Chill: 28°   Ceiling: 900
Heat Index: 37°   Visibility: 7mi
Dew Point: 35°   Wind: 15mph
Humidity: 93%   Direction: 170°S
Pressure: 29.48"   Gusts: NA
Location:  43.4018°N, 97.9102°W
Report Text: KMHE 220153Z AUTO 17013KT 7SM OVC009 03/02 A2948 RMK AO2 SLP995 T00280017
Loading
Personal Weather Stations






























Interactive Weather Map New forecast layout! Learn more

10-Day Weather Forecast

Advertisements
Track Severe Weather on mobile